createdAt,value
2022-12-28T00:01:46.244Z,0.45
2022-12-28T00:04:13.434Z,0.50
2022-12-28T00:06:40.698Z,0.65
2022-12-28T00:09:07.864Z,0.50
2022-12-28T00:11:35.154Z,0.35
2022-12-28T00:14:02.506Z,0.57
2022-12-28T00:16:29.981Z,0.45
2022-12-28T00:18:57.417Z,0.28
2022-12-28T00:21:24.676Z,0.30
2022-12-28T00:23:51.943Z,0.35
2022-12-28T00:26:19.151Z,0.40
2022-12-28T00:28:46.337Z,0.30
2022-12-28T00:31:13.713Z,0.30
2022-12-28T00:33:40.996Z,0.20
2022-12-28T00:36:08.251Z,0.20
2022-12-28T00:38:35.459Z,0.40
2022-12-28T00:41:02.708Z,0.28
2022-12-28T00:43:29.933Z,0.28
2022-12-28T00:45:59.266Z,0.20
2022-12-28T00:48:26.667Z,0.40
2022-12-28T00:50:54.241Z,0.20
2022-12-28T00:53:21.606Z,0.30
2022-12-28T00:55:48.820Z,0.75
2022-12-28T00:58:16.125Z,0.20
2022-12-28T01:00:43.434Z,0.30
2022-12-28T01:03:10.669Z,0.25
2022-12-28T01:05:38.020Z,0.20
2022-12-28T01:08:08.255Z,0.10
2022-12-28T01:10:35.543Z,0.40
2022-12-28T01:13:02.727Z,0.57
2022-12-28T01:15:30.047Z,0.13
2022-12-28T01:17:57.246Z,0.28
2022-12-28T01:20:24.534Z,0.45
2022-12-28T01:22:51.795Z,0.20
2022-12-28T01:25:19.041Z,0.20
2022-12-28T01:27:46.213Z,0.20
2022-12-28T01:30:13.503Z,0.20
2022-12-28T01:32:40.766Z,0.15
2022-12-28T01:35:08.024Z,0.10
2022-12-28T01:37:35.823Z,0.22
2022-12-28T01:40:03.054Z,0.30
2022-12-28T01:42:30.357Z,0.10
2022-12-28T01:45:01.079Z,0.10
2022-12-28T01:47:28.675Z,0.10
2022-12-28T01:49:56.530Z,0.30
2022-12-28T01:52:23.732Z,0.20
2022-12-28T01:54:50.906Z,0.30
2022-12-28T01:57:18.309Z,0.22
2022-12-28T01:59:45.714Z,0.30
2022-12-28T02:02:13.089Z,0.30
2022-12-28T02:04:40.390Z,0.30
2022-12-28T02:07:07.648Z,0.30
2022-12-28T02:09:34.826Z,0.30
2022-12-28T02:12:02.877Z,0.40
2022-12-28T02:14:30.107Z,0.30
2022-12-28T02:16:57.408Z,0.50
2022-12-28T02:19:25.273Z,0.30
2022-12-28T02:21:52.598Z,0.22
2022-12-28T02:24:19.764Z,0.40
2022-12-28T02:26:47.007Z,0.25
2022-12-28T02:29:14.253Z,0.20
2022-12-28T02:31:41.544Z,0.35
2022-12-28T02:34:08.818Z,0.52
2022-12-28T02:36:36.061Z,0.32
2022-12-28T02:39:03.628Z,0.30
2022-12-28T02:41:30.858Z,0.40
2022-12-28T02:43:58.086Z,0.20
2022-12-28T02:46:43.922Z,0.30
2022-12-28T02:49:30.174Z,0.30
2022-12-28T02:51:57.450Z,0.38
2022-12-28T02:54:43.454Z,0.30
2022-12-28T02:57:10.763Z,0.20
2022-12-28T02:59:38.133Z,0.30
2022-12-28T03:02:05.769Z,0.28
2022-12-28T03:04:33.186Z,0.40
2022-12-28T03:07:19.158Z,0.40
2022-12-28T03:09:46.405Z,0.20
2022-12-28T03:12:14.324Z,0.30
2022-12-28T03:14:43.041Z,0.30
2022-12-28T03:17:29.078Z,0.20
2022-12-28T03:20:15.071Z,0.20
2022-12-28T03:23:01.309Z,0.20
2022-12-28T03:25:47.426Z,0.30
2022-12-28T03:28:34.368Z,0.20
2022-12-28T03:31:09.551Z,0.20
2022-12-28T03:33:44.331Z,0.40
2022-12-28T03:36:11.656Z,0.30
2022-12-28T03:38:43.153Z,0.28
2022-12-28T03:41:11.217Z,0.85
2022-12-28T03:43:42.370Z,0.20
2022-12-28T03:46:13.797Z,0.40
2022-12-28T03:48:43.365Z,0.30
2022-12-28T03:51:10.754Z,0.32
2022-12-28T03:53:38.278Z,0.30
2022-12-28T03:56:08.396Z,0.30
2022-12-28T03:58:35.885Z,0.20
2022-12-28T04:01:04.245Z,0.40
2022-12-28T04:03:31.751Z,0.25
2022-12-28T04:05:59.068Z,0.10
2022-12-28T04:08:26.344Z,0.20
2022-12-28T04:10:54.359Z,0.20
2022-12-28T04:13:22.450Z,0.20
2022-12-28T04:15:57.999Z,0.10
2022-12-28T04:18:25.309Z,0.20
2022-12-28T04:20:52.878Z,0.00
2022-12-28T04:23:20.322Z,0.10
2022-12-28T04:25:50.023Z,0.10
2022-12-28T04:28:17.335Z,0.10
2022-12-28T04:31:02.962Z,0.10
2022-12-28T04:33:31.014Z,0.00
2022-12-28T04:35:58.279Z,0.10
2022-12-28T04:38:25.529Z,0.00
2022-12-28T04:40:52.761Z,0.08
2022-12-28T04:43:20.026Z,0.00
2022-12-28T04:45:47.298Z,0.00
2022-12-28T04:48:14.549Z,0.00
2022-12-28T04:50:42.004Z,0.00
2022-12-28T04:53:09.278Z,0.00
2022-12-28T04:55:36.473Z,0.00
2022-12-28T04:58:03.729Z,0.00
2022-12-28T05:00:31.031Z,0.00
2022-12-28T05:02:58.355Z,0.10
2022-12-28T05:05:25.558Z,0.00
2022-12-28T05:07:52.786Z,0.10
2022-12-28T05:10:19.971Z,0.10
2022-12-28T05:12:47.243Z,0.00
2022-12-28T05:15:14.409Z,0.20
2022-12-28T05:17:41.637Z,0.00
2022-12-28T05:20:08.833Z,0.10
2022-12-28T05:22:40.631Z,0.10
2022-12-28T05:25:08.195Z,0.08
2022-12-28T05:27:35.367Z,0.10
2022-12-28T05:30:02.660Z,0.00
2022-12-28T05:32:29.854Z,0.00
2022-12-28T05:34:57.199Z,0.20
2022-12-28T05:37:24.396Z,0.10
2022-12-28T05:39:51.658Z,0.10
2022-12-28T05:42:18.887Z,0.10
2022-12-28T05:44:46.149Z,0.20
2022-12-28T05:47:13.888Z,0.03
2022-12-28T05:49:41.195Z,0.20
2022-12-28T05:52:08.442Z,0.08
2022-12-28T05:54:35.748Z,0.10
2022-12-28T05:57:02.975Z,0.10
2022-12-28T05:59:30.141Z,0.40
2022-12-28T06:01:57.557Z,0.10
2022-12-28T06:04:25.317Z,0.20
2022-12-28T06:06:54.293Z,0.25
2022-12-28T06:09:21.499Z,0.35
2022-12-28T06:11:48.845Z,0.20
2022-12-28T06:14:16.201Z,0.40
2022-12-28T06:16:44.123Z,0.30
2022-12-28T06:19:11.462Z,0.20
2022-12-28T06:21:38.914Z,0.20
2022-12-28T06:24:06.107Z,0.25
2022-12-28T06:26:33.566Z,0.13
2022-12-28T06:29:01.994Z,0.20
2022-12-28T06:31:29.275Z,0.30
2022-12-28T06:33:57.264Z,0.15
2022-12-28T06:36:24.561Z,0.15
2022-12-28T06:38:51.782Z,0.10
2022-12-28T06:41:19.140Z,0.20
2022-12-28T06:43:46.407Z,0.13
2022-12-28T06:46:13.730Z,0.20
2022-12-28T06:48:41.091Z,0.00
2022-12-28T06:51:08.504Z,0.10
2022-12-28T06:53:35.757Z,0.10
2022-12-28T06:56:03.856Z,0.20
2022-12-28T06:58:31.059Z,0.30
2022-12-28T07:00:58.494Z,0.20
2022-12-28T07:03:25.893Z,0.50
2022-12-28T07:05:53.191Z,0.32
2022-12-28T07:08:20.384Z,0.40
2022-12-28T07:10:47.684Z,0.30
2022-12-28T07:13:14.910Z,0.38
2022-12-28T07:15:42.203Z,0.55
2022-12-28T07:18:09.583Z,0.57
2022-12-28T07:20:40.357Z,0.52
2022-12-28T07:23:08.032Z,0.40
2022-12-28T07:25:35.323Z,1.20
2022-12-28T07:28:02.537Z,0.50
2022-12-28T07:30:30.058Z,0.70
2022-12-28T07:32:57.492Z,0.70
2022-12-28T07:35:24.763Z,0.88
2022-12-28T07:37:51.989Z,1.08
2022-12-28T07:40:19.274Z,0.85
2022-12-28T07:42:46.557Z,0.80
2022-12-28T07:45:13.847Z,1.00
2022-12-28T07:47:41.199Z,0.93
2022-12-28T07:50:08.447Z,0.98
2022-12-28T07:52:35.693Z,1.73
2022-12-28T07:55:02.954Z,1.10
2022-12-28T07:57:30.188Z,1.00
2022-12-28T07:59:57.388Z,1.40
2022-12-28T08:02:24.918Z,1.67
2022-12-28T08:04:52.564Z,1.48
2022-12-28T08:07:19.945Z,1.90
2022-12-28T08:09:47.762Z,1.05
2022-12-28T08:12:15.155Z,2.10
2022-12-28T08:14:43.029Z,1.00
2022-12-28T08:17:11.468Z,1.88
2022-12-28T08:19:42.128Z,1.83
2022-12-28T08:22:09.357Z,3.10
2022-12-28T08:24:36.838Z,1.67
2022-12-28T08:27:04.088Z,1.40
2022-12-28T08:29:31.357Z,1.77
2022-12-28T08:31:58.575Z,1.33
2022-12-28T08:34:27.420Z,1.98
2022-12-28T08:36:54.757Z,1.52
2022-12-28T08:39:22.001Z,1.92
2022-12-28T08:41:49.286Z,1.80
2022-12-28T08:44:16.502Z,2.40
2022-12-28T08:46:43.984Z,2.30
2022-12-28T08:49:11.254Z,1.67
2022-12-28T08:51:40.026Z,1.63
2022-12-28T08:54:07.246Z,2.30
2022-12-28T08:56:34.528Z,2.08
2022-12-28T08:59:02.605Z,1.42
2022-12-28T09:01:30.067Z,1.20
2022-12-28T09:03:57.434Z,1.48
2022-12-28T09:06:24.689Z,0.93
2022-12-28T09:09:07.466Z,1.23
2022-12-28T09:11:34.926Z,1.20
2022-12-28T09:14:02.137Z,0.95
2022-12-28T09:16:29.436Z,0.90
2022-12-28T09:18:56.754Z,0.80
2022-12-28T09:21:24.131Z,1.85
2022-12-28T09:23:51.630Z,1.83
2022-12-28T09:26:18.991Z,1.40
2022-12-28T09:28:46.340Z,1.40
2022-12-28T09:31:13.711Z,2.25
2022-12-28T09:36:47.785Z,1.23
2022-12-28T09:39:17.038Z,2.08
2022-12-28T09:41:45.081Z,1.48
2022-12-28T09:44:12.230Z,3.03
2022-12-28T09:46:42.812Z,1.92
2022-12-28T09:49:13.969Z,1.63
2022-12-28T09:51:41.184Z,3.17
2022-12-28T09:54:08.425Z,2.25
2022-12-28T09:56:35.614Z,1.58
2022-12-28T09:59:02.923Z,1.77
2022-12-28T10:01:30.270Z,1.58
2022-12-28T10:03:57.537Z,1.75
2022-12-28T10:06:24.842Z,1.20
2022-12-28T10:08:52.028Z,2.13
2022-12-28T10:11:19.362Z,2.20
2022-12-28T10:13:55.285Z,2.22
2022-12-28T10:16:23.356Z,1.73
2022-12-28T10:18:50.636Z,1.40
2022-12-28T10:21:19.993Z,1.67
2022-12-28T10:24:12.487Z,1.40
2022-12-28T10:26:34.802Z,2.13
2022-12-28T10:29:02.061Z,1.30
2022-12-28T10:31:29.355Z,1.92
2022-12-28T10:33:56.559Z,1.60
2022-12-28T10:36:29.731Z,1.90
2022-12-28T10:38:58.842Z,1.88
2022-12-28T10:41:26.019Z,1.30
2022-12-28T10:44:21.575Z,1.52
2022-12-28T10:46:40.684Z,1.75
2022-12-28T10:49:12.404Z,1.92
2022-12-28T10:51:42.751Z,1.77
2022-12-28T10:54:09.935Z,1.55
2022-12-28T10:56:37.288Z,1.95
2022-12-28T10:59:04.688Z,1.73
2022-12-28T11:01:31.951Z,1.83
2022-12-28T11:04:00.296Z,1.50
2022-12-28T11:06:28.151Z,2.25
2022-12-28T11:08:55.483Z,2.10
2022-12-28T11:11:22.712Z,1.60
2022-12-28T11:13:50.004Z,1.30
2022-12-28T11:16:17.307Z,1.90
2022-12-28T11:18:44.496Z,2.53
2022-12-28T11:21:11.868Z,1.30
2022-12-28T11:23:39.106Z,1.95
2022-12-28T11:26:06.368Z,1.35
2022-12-28T11:28:33.589Z,1.55
2022-12-28T11:31:00.874Z,2.72
2022-12-28T11:33:28.367Z,2.10
2022-12-28T11:35:59.618Z,1.55
2022-12-28T11:38:27.347Z,1.52
2022-12-28T11:40:55.203Z,2.60
2022-12-28T11:43:22.471Z,1.75
2022-12-28T11:45:49.701Z,1.42
2022-12-28T11:48:16.941Z,1.73
2022-12-28T11:50:44.125Z,1.10
2022-12-28T11:53:14.020Z,1.83
2022-12-28T11:55:41.470Z,1.20
2022-12-28T11:58:09.071Z,1.48
2022-12-28T12:00:36.350Z,1.50
2022-12-28T12:03:03.695Z,1.67
2022-12-28T12:05:31.059Z,1.40
2022-12-28T12:07:58.241Z,1.17
2022-12-28T12:10:25.481Z,1.15
2022-12-28T12:12:52.729Z,1.40
2022-12-28T12:15:20.013Z,1.30
2022-12-28T12:17:47.252Z,0.93
2022-12-28T12:20:14.787Z,1.45
2022-12-28T12:22:41.990Z,1.90
2022-12-28T12:25:09.334Z,1.33
2022-12-28T12:27:36.773Z,1.60
2022-12-28T12:30:04.060Z,2.47
2022-12-28T12:32:31.316Z,1.42
2022-12-28T12:34:58.569Z,1.65
2022-12-28T12:37:26.185Z,1.33
2022-12-28T12:39:53.487Z,2.13
2022-12-28T12:42:20.685Z,1.15
2022-12-28T12:44:47.915Z,1.50
2022-12-28T12:47:15.198Z,1.73
2022-12-28T12:49:42.519Z,1.92
2022-12-28T12:52:09.715Z,1.75
2022-12-28T12:54:36.921Z,1.73
2022-12-28T12:57:04.235Z,1.35
2022-12-28T12:59:31.518Z,1.58
2022-12-28T13:01:58.849Z,1.92
2022-12-28T13:04:26.234Z,1.42
2022-12-28T13:06:53.479Z,1.23
2022-12-28T13:09:20.733Z,1.20
2022-12-28T13:11:48.361Z,1.00
2022-12-28T13:14:15.624Z,1.23
2022-12-28T13:16:42.825Z,1.25
2022-12-28T13:19:10.169Z,1.60
2022-12-28T13:21:37.401Z,1.17
2022-12-28T13:24:04.872Z,1.38
2022-12-28T13:26:34.336Z,0.95
2022-12-28T13:29:01.687Z,1.20
2022-12-28T13:31:28.845Z,1.25
2022-12-28T13:33:56.136Z,1.33
2022-12-28T13:36:23.325Z,2.28
2022-12-28T13:38:50.552Z,1.00
2022-12-28T13:41:17.832Z,0.63
2022-12-28T13:43:45.397Z,0.70
2022-12-28T13:46:12.912Z,1.00
2022-12-28T13:48:40.312Z,0.47
2022-12-28T13:51:07.616Z,0.95
2022-12-28T13:53:35.109Z,0.60
2022-12-28T13:56:02.302Z,0.45
2022-12-28T13:58:29.590Z,0.55
2022-12-28T14:00:56.963Z,0.73
2022-12-28T14:03:24.358Z,0.75
2022-12-28T14:05:51.728Z,0.47
2022-12-28T14:08:19.003Z,0.60
2022-12-28T14:10:46.268Z,0.80
2022-12-28T14:13:13.571Z,0.60
2022-12-28T14:15:41.571Z,0.60
2022-12-28T14:18:09.220Z,0.60
2022-12-28T14:20:36.474Z,0.55
2022-12-28T14:23:03.793Z,0.90
2022-12-28T14:25:30.997Z,0.60
2022-12-28T14:27:58.282Z,0.50
2022-12-28T14:30:25.479Z,0.85
2022-12-28T14:32:52.791Z,0.70
2022-12-28T14:35:20.055Z,1.52
2022-12-28T14:37:47.352Z,0.73
2022-12-28T14:40:14.577Z,0.73
2022-12-28T14:42:41.919Z,0.75
2022-12-28T14:45:09.276Z,0.98
2022-12-28T14:47:36.532Z,1.00
2022-12-28T14:50:03.748Z,0.63
2022-12-28T14:52:30.975Z,0.98
2022-12-28T14:54:58.223Z,0.82
2022-12-28T14:57:25.522Z,1.27
2022-12-28T14:59:52.748Z,0.47
2022-12-28T15:02:20.045Z,0.90
2022-12-28T15:04:49.907Z,0.60
2022-12-28T15:07:17.078Z,0.80
2022-12-28T15:09:44.838Z,0.80
2022-12-28T15:12:12.280Z,1.05
2022-12-28T15:14:39.678Z,0.60
2022-12-28T15:17:07.100Z,0.50
2022-12-28T15:19:34.328Z,0.65
2022-12-28T15:22:01.592Z,0.60
2022-12-28T15:24:33.755Z,0.85
2022-12-28T15:27:01.606Z,0.55
2022-12-28T15:29:47.892Z,0.70
2022-12-28T15:32:16.114Z,1.10
2022-12-28T15:34:43.376Z,0.90
2022-12-28T15:37:10.700Z,1.15
2022-12-28T15:39:37.935Z,3.60
2022-12-28T15:42:05.232Z,1.00
2022-12-28T15:44:32.482Z,1.52
2022-12-28T15:46:59.848Z,1.02
2022-12-28T15:49:27.157Z,1.58
2022-12-28T15:51:54.361Z,1.27
2022-12-28T15:54:21.541Z,1.40
2022-12-28T15:56:48.879Z,1.40
2022-12-28T15:59:16.144Z,3.28
2022-12-28T16:01:43.646Z,3.55
2022-12-28T16:04:11.042Z,1.90
2022-12-28T16:06:43.834Z,2.05
2022-12-28T16:09:11.311Z,2.00
2022-12-28T16:11:38.510Z,2.55
2022-12-28T16:14:05.810Z,2.20
2022-12-28T16:16:33.159Z,2.25
2022-12-28T16:19:02.432Z,1.88
2022-12-28T16:21:29.721Z,3.28
2022-12-28T16:23:56.934Z,3.42
2022-12-28T16:26:24.138Z,3.25
2022-12-28T16:28:51.459Z,1.40
2022-12-28T16:31:18.718Z,2.47
2022-12-28T16:33:45.995Z,2.85
2022-12-28T16:36:13.290Z,2.50
2022-12-28T16:38:40.517Z,3.35
2022-12-28T16:41:07.768Z,4.47
2022-12-28T16:43:35.034Z,2.13
2022-12-28T16:46:02.393Z,4.85
2022-12-28T16:48:29.615Z,3.78
2022-12-28T16:50:56.828Z,2.67
2022-12-28T16:53:24.962Z,3.38
2022-12-28T16:55:52.384Z,3.45
2022-12-28T16:58:19.650Z,3.85
2022-12-28T17:00:47.002Z,6.32
2022-12-28T17:03:14.279Z,3.42
2022-12-28T17:05:41.584Z,3.20
2022-12-28T17:08:08.769Z,3.63
2022-12-28T17:10:36.052Z,4.00
2022-12-28T17:13:03.422Z,3.60
2022-12-28T17:15:30.753Z,5.10
2022-12-28T17:17:58.017Z,5.32
2022-12-28T17:20:25.829Z,6.30
2022-12-28T17:22:53.030Z,4.25
2022-12-28T17:25:20.259Z,4.07
2022-12-28T17:27:47.513Z,4.90
2022-12-28T17:30:14.802Z,6.20
2022-12-28T17:32:41.945Z,3.35
2022-12-28T17:35:09.233Z,3.85
2022-12-28T17:37:36.396Z,4.05
2022-12-28T17:40:04.225Z,4.65
2022-12-28T17:42:31.423Z,3.95
2022-12-28T17:44:58.609Z,3.25
2022-12-28T17:47:25.810Z,2.90
2022-12-28T17:49:53.164Z,2.97
2022-12-28T17:52:22.290Z,2.45
2022-12-28T17:54:49.673Z,2.05
2022-12-28T17:57:16.856Z,2.42
2022-12-28T17:59:44.102Z,2.25
2022-12-28T18:02:12.893Z,3.20
2022-12-28T18:04:40.236Z,2.65
2022-12-28T18:07:07.635Z,2.55
2022-12-28T18:09:34.834Z,2.03
2022-12-28T18:12:02.160Z,2.45
2022-12-28T18:14:29.390Z,2.63
2022-12-28T18:16:56.744Z,3.75
2022-12-28T18:19:23.934Z,3.50
2022-12-28T18:21:51.166Z,2.67
2022-12-28T18:24:20.831Z,2.40
2022-12-28T18:26:48.330Z,3.25
2022-12-28T18:29:15.568Z,2.45
2022-12-28T18:31:42.973Z,2.83
2022-12-28T18:34:10.269Z,2.13
2022-12-28T18:36:37.667Z,1.75
2022-12-28T18:39:05.133Z,1.85
2022-12-28T18:41:34.394Z,2.70
2022-12-28T18:44:02.961Z,2.28
2022-12-28T18:46:30.441Z,2.53
2022-12-28T18:48:57.963Z,1.88
2022-12-28T18:51:26.148Z,2.42
2022-12-28T18:53:53.351Z,1.80
2022-12-28T18:56:20.768Z,1.98
2022-12-28T18:58:47.987Z,2.10
2022-12-28T19:04:02.846Z,1.90
2022-12-28T19:06:30.412Z,2.05
2022-12-28T19:08:57.682Z,2.20
2022-12-28T19:11:24.905Z,2.00
2022-12-28T19:13:52.131Z,2.72
2022-12-28T19:16:23.219Z,3.20
2022-12-28T19:18:56.022Z,2.22
2022-12-28T19:21:23.344Z,2.08
2022-12-28T19:23:51.103Z,1.90
2022-12-28T19:26:18.396Z,2.20
2022-12-28T19:28:45.597Z,2.67
2022-12-28T19:31:12.878Z,4.05
2022-12-28T19:33:40.162Z,2.72
2022-12-28T19:36:07.586Z,2.85
2022-12-28T19:38:34.795Z,3.10
2022-12-28T19:41:02.091Z,4.55
2022-12-28T19:43:29.361Z,4.15
2022-12-28T19:45:56.645Z,5.20
2022-12-28T19:48:24.579Z,4.03
2022-12-28T19:50:51.933Z,2.72
2022-12-28T19:53:19.256Z,4.32
2022-12-28T19:55:46.622Z,4.70
2022-12-28T19:58:13.857Z,2.95
2022-12-28T20:00:41.106Z,4.35
2022-12-28T20:03:08.665Z,4.50
2022-12-28T20:05:36.280Z,2.42
2022-12-28T20:08:03.707Z,3.70
2022-12-28T20:10:31.179Z,4.30
2022-12-28T20:12:58.475Z,3.58
2022-12-28T20:15:25.694Z,5.15
2022-12-28T20:17:53.032Z,2.97
2022-12-28T20:20:25.174Z,3.30
2022-12-28T20:22:54.624Z,4.43
2022-12-28T20:25:22.015Z,3.60
2022-12-28T20:27:49.288Z,6.25
2022-12-28T20:30:16.526Z,4.97
2022-12-28T20:32:45.087Z,6.97
2022-12-28T20:35:12.456Z,4.13
2022-12-28T20:37:39.778Z,5.20
2022-12-28T20:40:07.752Z,5.18
2022-12-28T20:42:54.280Z,5.90
2022-12-28T20:45:21.769Z,6.28
2022-12-28T20:47:49.043Z,3.95
2022-12-28T20:50:17.207Z,7.32
2022-12-28T20:52:45.312Z,5.10
2022-12-28T20:55:12.945Z,4.47
2022-12-28T20:57:40.134Z,3.40
2022-12-28T21:00:07.384Z,4.40
2022-12-28T21:02:34.714Z,5.18
2022-12-28T21:05:02.363Z,3.30
2022-12-28T21:07:32.313Z,3.97
2022-12-28T21:09:59.635Z,4.57
2022-12-28T21:12:26.843Z,7.15
2022-12-28T21:14:54.150Z,4.38
2022-12-28T21:17:21.401Z,4.78
2022-12-28T21:19:48.735Z,4.35
2022-12-28T21:22:16.060Z,4.10
2022-12-28T21:24:43.338Z,4.53
2022-12-28T21:27:10.719Z,5.15
2022-12-28T21:29:39.335Z,3.28
2022-12-28T21:32:07.211Z,3.75
2022-12-28T21:34:35.903Z,2.70
2022-12-28T21:37:23.450Z,2.78
2022-12-28T21:39:50.938Z,2.65
2022-12-28T21:42:18.253Z,4.32
2022-12-28T21:44:45.442Z,2.13
2022-12-28T21:47:12.803Z,2.53
2022-12-28T21:49:39.989Z,2.65
2022-12-28T21:52:07.594Z,2.78
2022-12-28T21:54:34.945Z,3.28
2022-12-28T21:57:03.660Z,2.28
2022-12-28T21:59:32.685Z,2.75
2022-12-28T22:02:18.758Z,3.70
2022-12-28T22:05:05.042Z,3.03
2022-12-28T22:07:32.325Z,2.88
2022-12-28T22:10:18.307Z,2.20
2022-12-28T22:12:45.721Z,2.28
2022-12-28T22:15:31.925Z,3.95
2022-12-28T22:17:59.249Z,2.70
2022-12-28T22:20:26.544Z,2.35
2022-12-28T22:22:53.866Z,6.30
2022-12-28T22:25:21.121Z,1.88
2022-12-28T22:27:48.365Z,2.20
2022-12-28T22:30:15.635Z,1.88
2022-12-28T22:32:42.886Z,2.97
2022-12-28T22:35:10.185Z,3.67
2022-12-28T22:37:37.517Z,1.65
2022-12-28T22:40:05.150Z,2.30
2022-12-28T22:42:32.405Z,2.67
2022-12-28T22:44:59.743Z,2.25
2022-12-28T22:47:27.842Z,3.28
2022-12-28T22:49:55.277Z,2.53
2022-12-28T22:52:22.696Z,2.50
2022-12-28T22:54:51.112Z,3.55
2022-12-28T22:57:18.326Z,2.63
2022-12-28T22:59:45.833Z,5.13
2022-12-28T23:02:13.286Z,2.38
2022-12-28T23:04:40.741Z,4.70
2022-12-28T23:07:08.097Z,3.00
2022-12-28T23:09:35.352Z,2.90
2022-12-28T23:12:02.822Z,2.53
2022-12-28T23:14:48.698Z,2.13
2022-12-28T23:17:16.159Z,2.42
2022-12-28T23:20:02.162Z,4.05
2022-12-28T23:22:48.165Z,3.50
2022-12-28T23:25:34.242Z,3.70
2022-12-28T23:28:01.541Z,4.38
2022-12-28T23:30:29.158Z,3.28
2022-12-28T23:32:56.513Z,7.90
2022-12-28T23:35:23.821Z,3.08
2022-12-28T23:37:51.052Z,3.03
2022-12-28T23:40:18.333Z,4.78
2022-12-28T23:42:45.665Z,4.68
2022-12-28T23:45:12.871Z,3.75
2022-12-28T23:47:40.216Z,5.70
2022-12-28T23:50:07.423Z,3.55
2022-12-28T23:52:34.675Z,3.17
2022-12-28T23:55:01.916Z,4.47
2022-12-28T23:57:29.180Z,3.22
2022-12-28T23:59:56.381Z,3.00
